sensor_id;sensor_type;location;lat;lon;timestamp;P1;P2;P0
49454;PMS5003;69710;64.656;21.218;2023-05-16T00:00:54;21;20;
49454;PMS5003;69710;64.656;21.218;2023-05-16T00:03:22;21;20;
49454;PMS5003;69710;64.656;21.218;2023-05-16T00:05:49;21;19;
49454;PMS5003;69710;64.656;21.218;2023-05-16T00:08:16;19;18;
49454;PMS5003;69710;64.656;21.218;2023-05-16T00:10:44;20;20;
49454;PMS5003;69710;64.656;21.218;2023-05-16T00:13:11;19;19;
49454;PMS5003;69710;64.656;21.218;2023-05-16T00:15:39;24;21;
49454;PMS5003;69710;64.656;21.218;2023-05-16T00:18:07;21;20;
49454;PMS5003;69710;64.656;21.218;2023-05-16T00:20:35;18;18;
49454;PMS5003;69710;64.656;21.218;2023-05-16T00:23:02;20;19;
49454;PMS5003;69710;64.656;21.218;2023-05-16T00:25:30;19;18;
49454;PMS5003;69710;64.656;21.218;2023-05-16T00:27:57;25;24;
49454;PMS5003;69710;64.656;21.218;2023-05-16T00:30:24;21;20;
49454;PMS5003;69710;64.656;21.218;2023-05-16T00:32:53;19;19;
49454;PMS5003;69710;64.656;21.218;2023-05-16T00:35:21;23;20;
49454;PMS5003;69710;64.656;21.218;2023-05-16T00:37:49;23;22;
49454;PMS5003;69710;64.656;21.218;2023-05-16T00:40:16;24;21;
49454;PMS5003;69710;64.656;21.218;2023-05-16T00:42:44;22;21;
49454;PMS5003;69710;64.656;21.218;2023-05-16T00:45:12;25;23;
49454;PMS5003;69710;64.656;21.218;2023-05-16T00:47:40;24;23;
49454;PMS5003;69710;64.656;21.218;2023-05-16T00:50:08;20;20;
49454;PMS5003;69710;64.656;21.218;2023-05-16T00:52:52;23;22;
49454;PMS5003;69710;64.656;21.218;2023-05-16T00:55:19;23;22;
49454;PMS5003;69710;64.656;21.218;2023-05-16T00:57:47;29;29;
49454;PMS5003;69710;64.656;21.218;2023-05-16T01:00:15;22;22;
49454;PMS5003;69710;64.656;21.218;2023-05-16T01:02:43;25;24;
49454;PMS5003;69710;64.656;21.218;2023-05-16T01:05:11;27;25;
49454;PMS5003;69710;64.656;21.218;2023-05-16T01:07:39;31;28;
49454;PMS5003;69710;64.656;21.218;2023-05-16T01:10:07;25;25;
49454;PMS5003;69710;64.656;21.218;2023-05-16T01:12:36;22;22;
49454;PMS5003;69710;64.656;21.218;2023-05-16T01:15:12;24;24;
49454;PMS5003;69710;64.656;21.218;2023-05-16T01:17:48;24;23;
49454;PMS5003;69710;64.656;21.218;2023-05-16T01:20:26;28;28;
49454;PMS5003;69710;64.656;21.218;2023-05-16T01:23:03;24;20;
49454;PMS5003;69710;64.656;21.218;2023-05-16T01:25:44;23;23;
49454;PMS5003;69710;64.656;21.218;2023-05-16T01:28:22;25;25;
49454;PMS5003;69710;64.656;21.218;2023-05-16T01:30:50;22;22;
49454;PMS5003;69710;64.656;21.218;2023-05-16T01:33:18;25;23;
49454;PMS5003;69710;64.656;21.218;2023-05-16T01:35:49;29;24;
49454;PMS5003;69710;64.656;21.218;2023-05-16T01:38:25;28;27;
49454;PMS5003;69710;64.656;21.218;2023-05-16T01:40:58;24;23;
49454;PMS5003;69710;64.656;21.218;2023-05-16T01:43:31;25;24;
49454;PMS5003;69710;64.656;21.218;2023-05-16T01:46:02;25;23;
49454;PMS5003;69710;64.656;21.218;2023-05-16T01:48:37;21;21;
49454;PMS5003;69710;64.656;21.218;2023-05-16T01:51:09;23;20;
49454;PMS5003;69710;64.656;21.218;2023-05-16T01:53:38;20;20;
49454;PMS5003;69710;64.656;21.218;2023-05-16T01:56:08;20;20;
49454;PMS5003;69710;64.656;21.218;2023-05-16T01:58:41;22;22;
49454;PMS5003;69710;64.656;21.218;2023-05-16T02:01:10;20;19;
49454;PMS5003;69710;64.656;21.218;2023-05-16T02:03:39;26;24;
49454;PMS5003;69710;64.656;21.218;2023-05-16T02:06:07;19;19;
49454;PMS5003;69710;64.656;21.218;2023-05-16T02:08:35;24;22;
49454;PMS5003;69710;64.656;21.218;2023-05-16T02:11:02;20;19;
49454;PMS5003;69710;64.656;21.218;2023-05-16T02:13:30;25;22;
49454;PMS5003;69710;64.656;21.218;2023-05-16T02:15:57;22;21;
49454;PMS5003;69710;64.656;21.218;2023-05-16T02:18:24;17;17;
49454;PMS5003;69710;64.656;21.218;2023-05-16T02:20:52;23;21;
49454;PMS5003;69710;64.656;21.218;2023-05-16T02:23:20;19;19;
49454;PMS5003;69710;64.656;21.218;2023-05-16T02:25:47;23;23;
49454;PMS5003;69710;64.656;21.218;2023-05-16T02:28:15;20;20;
49454;PMS5003;69710;64.656;21.218;2023-05-16T02:30:42;20;19;
49454;PMS5003;69710;64.656;21.218;2023-05-16T02:33:10;22;21;
49454;PMS5003;69710;64.656;21.218;2023-05-16T02:35:37;23;23;
49454;PMS5003;69710;64.656;21.218;2023-05-16T02:38:04;23;23;
49454;PMS5003;69710;64.656;21.218;2023-05-16T02:40:32;21;20;
49454;PMS5003;69710;64.656;21.218;2023-05-16T02:43:00;20;18;
49454;PMS5003;69710;64.656;21.218;2023-05-16T02:45:27;22;22;
49454;PMS5003;69710;64.656;21.218;2023-05-16T02:47:55;23;22;
49454;PMS5003;69710;64.656;21.218;2023-05-16T02:50:23;19;19;
49454;PMS5003;69710;64.656;21.218;2023-05-16T02:52:51;23;21;
49454;PMS5003;69710;64.656;21.218;2023-05-16T02:55:18;23;22;
49454;PMS5003;69710;64.656;21.218;2023-05-16T02:57:46;19;18;
49454;PMS5003;69710;64.656;21.218;2023-05-16T03:00:13;21;20;
49454;PMS5003;69710;64.656;21.218;2023-05-16T03:02:41;22;22;
49454;PMS5003;69710;64.656;21.218;2023-05-16T03:05:09;24;24;
49454;PMS5003;69710;64.656;21.218;2023-05-16T03:07:37;20;18;
49454;PMS5003;69710;64.656;21.218;2023-05-16T03:10:05;23;22;
49454;PMS5003;69710;64.656;21.218;2023-05-16T03:12:33;23;21;
49454;PMS5003;69710;64.656;21.218;2023-05-16T03:15:01;24;23;
49454;PMS5003;69710;64.656;21.218;2023-05-16T03:17:28;20;20;
49454;PMS5003;69710;64.656;21.218;2023-05-16T03:19:56;23;23;
49454;PMS5003;69710;64.656;21.218;2023-05-16T03:22:23;25;25;
49454;PMS5003;69710;64.656;21.218;2023-05-16T03:24:50;21;21;
49454;PMS5003;69710;64.656;21.218;2023-05-16T03:27:18;23;21;
49454;PMS5003;69710;64.656;21.218;2023-05-16T03:29:45;19;19;
49454;PMS5003;69710;64.656;21.218;2023-05-16T03:32:13;23;21;
49454;PMS5003;69710;64.656;21.218;2023-05-16T03:34:40;21;20;
49454;PMS5003;69710;64.656;21.218;2023-05-16T03:37:08;23;22;
49454;PMS5003;69710;64.656;21.218;2023-05-16T03:39:35;24;21;
49454;PMS5003;69710;64.656;21.218;2023-05-16T03:42:02;22;22;
49454;PMS5003;69710;64.656;21.218;2023-05-16T03:44:30;22;22;
49454;PMS5003;69710;64.656;21.218;2023-05-16T03:46:58;21;20;
49454;PMS5003;69710;64.656;21.218;2023-05-16T03:49:26;22;21;
49454;PMS5003;69710;64.656;21.218;2023-05-16T03:51:54;23;22;
49454;PMS5003;69710;64.656;21.218;2023-05-16T03:54:22;20;19;
49454;PMS5003;69710;64.656;21.218;2023-05-16T03:56:49;23;21;
49454;PMS5003;69710;64.656;21.218;2023-05-16T03:59:17;28;27;
49454;PMS5003;69710;64.656;21.218;2023-05-16T04:01:45;21;21;
49454;PMS5003;69710;64.656;21.218;2023-05-16T04:04:13;24;24;
49454;PMS5003;69710;64.656;21.218;2023-05-16T04:06:41;22;22;
49454;PMS5003;69710;64.656;21.218;2023-05-16T04:09:09;22;22;
49454;PMS5003;69710;64.656;21.218;2023-05-16T04:11:36;23;23;
49454;PMS5003;69710;64.656;21.218;2023-05-16T04:14:03;22;21;
49454;PMS5003;69710;64.656;21.218;2023-05-16T04:16:31;22;21;
49454;PMS5003;69710;64.656;21.218;2023-05-16T04:18:58;22;19;
49454;PMS5003;69710;64.656;21.218;2023-05-16T04:21:25;20;19;
49454;PMS5003;69710;64.656;21.218;2023-05-16T04:23:53;19;19;
49454;PMS5003;69710;64.656;21.218;2023-05-16T04:26:20;21;21;
49454;PMS5003;69710;64.656;21.218;2023-05-16T04:28:48;19;19;
49454;PMS5003;69710;64.656;21.218;2023-05-16T04:31:15;20;20;
49454;PMS5003;69710;64.656;21.218;2023-05-16T04:33:42;22;22;
49454;PMS5003;69710;64.656;21.218;2023-05-16T04:36:10;21;20;
49454;PMS5003;69710;64.656;21.218;2023-05-16T04:38:38;26;23;
49454;PMS5003;69710;64.656;21.218;2023-05-16T04:41:05;20;20;
49454;PMS5003;69710;64.656;21.218;2023-05-16T04:43:33;23;23;
49454;PMS5003;69710;64.656;21.218;2023-05-16T04:46:01;23;23;
49454;PMS5003;69710;64.656;21.218;2023-05-16T04:48:29;26;25;
49454;PMS5003;69710;64.656;21.218;2023-05-16T04:50:57;22;21;
49454;PMS5003;69710;64.656;21.218;2023-05-16T04:53:24;20;19;
49454;PMS5003;69710;64.656;21.218;2023-05-16T04:55:52;20;20;
49454;PMS5003;69710;64.656;21.218;2023-05-16T04:58:19;21;21;
49454;PMS5003;69710;64.656;21.218;2023-05-16T05:00:47;19;18;
49454;PMS5003;69710;64.656;21.218;2023-05-16T05:03:14;20;20;
49454;PMS5003;69710;64.656;21.218;2023-05-16T05:05:42;22;22;
49454;PMS5003;69710;64.656;21.218;2023-05-16T05:08:09;22;22;
49454;PMS5003;69710;64.656;21.218;2023-05-16T05:10:37;23;23;
49454;PMS5003;69710;64.656;21.218;2023-05-16T05:13:04;23;22;
49454;PMS5003;69710;64.656;21.218;2023-05-16T05:15:32;23;21;
49454;PMS5003;69710;64.656;21.218;2023-05-16T05:18:00;20;20;
49454;PMS5003;69710;64.656;21.218;2023-05-16T05:20:28;20;20;
49454;PMS5003;69710;64.656;21.218;2023-05-16T05:22:55;20;20;
49454;PMS5003;69710;64.656;21.218;2023-05-16T05:25:23;22;22;
49454;PMS5003;69710;64.656;21.218;2023-05-16T05:27:50;23;23;
49454;PMS5003;69710;64.656;21.218;2023-05-16T05:30:18;23;22;
49454;PMS5003;69710;64.656;21.218;2023-05-16T05:32:45;20;19;
49454;PMS5003;69710;64.656;21.218;2023-05-16T05:35:13;19;19;
49454;PMS5003;69710;64.656;21.218;2023-05-16T05:37:41;27;25;
49454;PMS5003;69710;64.656;21.218;2023-05-16T05:40:09;22;21;
49454;PMS5003;69710;64.656;21.218;2023-05-16T05:42:36;21;21;
49454;PMS5003;69710;64.656;21.218;2023-05-16T05:45:04;19;19;
49454;PMS5003;69710;64.656;21.218;2023-05-16T05:47:32;23;21;
49454;PMS5003;69710;64.656;21.218;2023-05-16T05:49:59;21;21;
49454;PMS5003;69710;64.656;21.218;2023-05-16T05:52:27;20;20;
49454;PMS5003;69710;64.656;21.218;2023-05-16T05:54:54;24;19;
49454;PMS5003;69710;64.656;21.218;2023-05-16T05:57:22;18;17;
49454;PMS5003;69710;64.656;21.218;2023-05-16T05:59:49;20;19;
49454;PMS5003;69710;64.656;21.218;2023-05-16T06:02:17;21;21;
49454;PMS5003;69710;64.656;21.218;2023-05-16T06:04:45;23;20;
49454;PMS5003;69710;64.656;21.218;2023-05-16T06:07:13;24;23;
49454;PMS5003;69710;64.656;21.218;2023-05-16T06:09:40;22;20;
49454;PMS5003;69710;64.656;21.218;2023-05-16T06:12:08;19;19;
49454;PMS5003;69710;64.656;21.218;2023-05-16T06:14:36;21;20;
49454;PMS5003;69710;64.656;21.218;2023-05-16T06:17:04;22;21;
49454;PMS5003;69710;64.656;21.218;2023-05-16T06:19:31;24;22;
49454;PMS5003;69710;64.656;21.218;2023-05-16T06:21:59;24;24;
49454;PMS5003;69710;64.656;21.218;2023-05-16T06:24:27;19;18;
49454;PMS5003;69710;64.656;21.218;2023-05-16T06:26:55;21;20;
49454;PMS5003;69710;64.656;21.218;2023-05-16T06:29:22;20;20;
49454;PMS5003;69710;64.656;21.218;2023-05-16T06:31:50;23;20;
49454;PMS5003;69710;64.656;21.218;2023-05-16T06:34:18;21;20;
49454;PMS5003;69710;64.656;21.218;2023-05-16T06:36:46;20;19;
49454;PMS5003;69710;64.656;21.218;2023-05-16T06:39:15;22;22;
49454;PMS5003;69710;64.656;21.218;2023-05-16T06:41:42;22;21;
49454;PMS5003;69710;64.656;21.218;2023-05-16T06:44:09;19;19;
49454;PMS5003;69710;64.656;21.218;2023-05-16T06:46:37;23;21;
49454;PMS5003;69710;64.656;21.218;2023-05-16T06:49:04;21;20;
49454;PMS5003;69710;64.656;21.218;2023-05-16T06:51:32;18;18;
49454;PMS5003;69710;64.656;21.218;2023-05-16T06:53:59;22;20;
49454;PMS5003;69710;64.656;21.218;2023-05-16T06:56:26;23;21;
49454;PMS5003;69710;64.656;21.218;2023-05-16T06:58:54;28;27;
49454;PMS5003;69710;64.656;21.218;2023-05-16T07:01:21;19;19;
49454;PMS5003;69710;64.656;21.218;2023-05-16T07:03:49;23;22;
49454;PMS5003;69710;64.656;21.218;2023-05-16T07:06:17;25;24;
49454;PMS5003;69710;64.656;21.218;2023-05-16T07:08:45;23;23;
49454;PMS5003;69710;64.656;21.218;2023-05-16T07:11:13;23;21;
49454;PMS5003;69710;64.656;21.218;2023-05-16T07:13:40;23;22;
49454;PMS5003;69710;64.656;21.218;2023-05-16T07:16:08;24;22;
49454;PMS5003;69710;64.656;21.218;2023-05-16T07:18:35;21;20;
49454;PMS5003;69710;64.656;21.218;2023-05-16T07:21:03;23;23;
49454;PMS5003;69710;64.656;21.218;2023-05-16T07:23:30;23;23;
49454;PMS5003;69710;64.656;21.218;2023-05-16T07:25:58;24;24;
49454;PMS5003;69710;64.656;21.218;2023-05-16T07:28:26;18;18;
49454;PMS5003;69710;64.656;21.218;2023-05-16T07:30:53;20;20;
49454;PMS5003;69710;64.656;21.218;2023-05-16T07:33:20;22;21;
49454;PMS5003;69710;64.656;21.218;2023-05-16T07:35:48;19;19;
49454;PMS5003;69710;64.656;21.218;2023-05-16T07:38:16;19;19;
49454;PMS5003;69710;64.656;21.218;2023-05-16T07:40:44;22;21;
49454;PMS5003;69710;64.656;21.218;2023-05-16T07:43:11;22;20;
49454;PMS5003;69710;64.656;21.218;2023-05-16T07:45:39;17;16;
49454;PMS5003;69710;64.656;21.218;2023-05-16T07:48:07;22;22;
49454;PMS5003;69710;64.656;21.218;2023-05-16T07:50:34;29;28;
49454;PMS5003;69710;64.656;21.218;2023-05-16T07:53:01;24;24;
49454;PMS5003;69710;64.656;21.218;2023-05-16T07:55:29;22;20;
49454;PMS5003;69710;64.656;21.218;2023-05-16T07:57:56;23;23;
49454;PMS5003;69710;64.656;21.218;2023-05-16T08:00:24;19;19;
49454;PMS5003;69710;64.656;21.218;2023-05-16T08:02:52;23;22;
49454;PMS5003;69710;64.656;21.218;2023-05-16T08:05:20;26;23;
49454;PMS5003;69710;64.656;21.218;2023-05-16T08:07:47;25;25;
49454;PMS5003;69710;64.656;21.218;2023-05-16T08:10:14;24;24;
49454;PMS5003;69710;64.656;21.218;2023-05-16T08:12:42;24;23;
49454;PMS5003;69710;64.656;21.218;2023-05-16T08:15:10;20;19;
49454;PMS5003;69710;64.656;21.218;2023-05-16T08:17:37;22;21;
49454;PMS5003;69710;64.656;21.218;2023-05-16T08:20:06;25;24;
49454;PMS5003;69710;64.656;21.218;2023-05-16T08:22:34;23;22;
49454;PMS5003;69710;64.656;21.218;2023-05-16T08:25:01;26;24;
49454;PMS5003;69710;64.656;21.218;2023-05-16T08:27:29;26;26;
49454;PMS5003;69710;64.656;21.218;2023-05-16T08:29:57;23;22;
49454;PMS5003;69710;64.656;21.218;2023-05-16T08:32:24;24;23;
49454;PMS5003;69710;64.656;21.218;2023-05-16T08:34:52;29;28;
49454;PMS5003;69710;64.656;21.218;2023-05-16T08:37:19;27;26;
49454;PMS5003;69710;64.656;21.218;2023-05-16T08:39:47;21;21;
49454;PMS5003;69710;64.656;21.218;2023-05-16T08:42:15;24;24;
49454;PMS5003;69710;64.656;21.218;2023-05-16T08:44:42;27;25;
49454;PMS5003;69710;64.656;21.218;2023-05-16T08:47:10;20;19;
49454;PMS5003;69710;64.656;21.218;2023-05-16T08:49:38;22;22;
49454;PMS5003;69710;64.656;21.218;2023-05-16T08:52:07;22;21;
49454;PMS5003;69710;64.656;21.218;2023-05-16T08:54:36;25;24;
49454;PMS5003;69710;64.656;21.218;2023-05-16T08:57:05;24;23;
49454;PMS5003;69710;64.656;21.218;2023-05-16T08:59:35;21;19;
49454;PMS5003;69710;64.656;21.218;2023-05-16T09:02:03;19;19;
49454;PMS5003;69710;64.656;21.218;2023-05-16T09:04:31;21;21;
49454;PMS5003;69710;64.656;21.218;2023-05-16T09:06:59;26;23;
49454;PMS5003;69710;64.656;21.218;2023-05-16T09:09:27;18;18;
49454;PMS5003;69710;64.656;21.218;2023-05-16T09:11:55;19;18;
49454;PMS5003;69710;64.656;21.218;2023-05-16T09:14:22;18;17;
49454;PMS5003;69710;64.656;21.218;2023-05-16T09:17:01;19;18;
49454;PMS5003;69710;64.656;21.218;2023-05-16T09:19:32;18;18;
49454;PMS5003;69710;64.656;21.218;2023-05-16T09:22:04;19;18;
49454;PMS5003;69710;64.656;21.218;2023-05-16T09:24:35;21;20;
49454;PMS5003;69710;64.656;21.218;2023-05-16T09:27:08;17;17;
49454;PMS5003;69710;64.656;21.218;2023-05-16T09:29:36;19;17;
49454;PMS5003;69710;64.656;21.218;2023-05-16T09:32:09;20;20;
49454;PMS5003;69710;64.656;21.218;2023-05-16T09:34:38;20;19;
49454;PMS5003;69710;64.656;21.218;2023-05-16T09:37:09;17;17;
49454;PMS5003;69710;64.656;21.218;2023-05-16T09:39:37;19;19;
49454;PMS5003;69710;64.656;21.218;2023-05-16T09:42:09;19;19;
49454;PMS5003;69710;64.656;21.218;2023-05-16T09:44:37;20;19;
49454;PMS5003;69710;64.656;21.218;2023-05-16T09:47:05;22;20;
49454;PMS5003;69710;64.656;21.218;2023-05-16T09:49:32;23;22;
49454;PMS5003;69710;64.656;21.218;2023-05-16T09:52:03;23;22;
49454;PMS5003;69710;64.656;21.218;2023-05-16T09:54:31;23;23;
49454;PMS5003;69710;64.656;21.218;2023-05-16T09:57:00;21;21;
49454;PMS5003;69710;64.656;21.218;2023-05-16T09:59:27;21;21;
49454;PMS5003;69710;64.656;21.218;2023-05-16T10:01:56;26;25;
49454;PMS5003;69710;64.656;21.218;2023-05-16T10:04:24;24;22;
49454;PMS5003;69710;64.656;21.218;2023-05-16T10:06:53;25;21;
49454;PMS5003;69710;64.656;21.218;2023-05-16T10:09:22;23;19;
49454;PMS5003;69710;64.656;21.218;2023-05-16T10:11:50;24;23;
49454;PMS5003;69710;64.656;21.218;2023-05-16T10:14:19;21;20;
49454;PMS5003;69710;64.656;21.218;2023-05-16T10:16:48;24;23;
49454;PMS5003;69710;64.656;21.218;2023-05-16T10:19:19;29;29;
49454;PMS5003;69710;64.656;21.218;2023-05-16T10:21:50;24;23;
49454;PMS5003;69710;64.656;21.218;2023-05-16T10:24:21;25;24;
49454;PMS5003;69710;64.656;21.218;2023-05-16T10:26:52;30;29;
49454;PMS5003;69710;64.656;21.218;2023-05-16T10:29:19;28;27;
49454;PMS5003;69710;64.656;21.218;2023-05-16T10:31:48;25;25;
49454;PMS5003;69710;64.656;21.218;2023-05-16T10:34:16;27;27;
49454;PMS5003;69710;64.656;21.218;2023-05-16T10:36:44;29;29;
49454;PMS5003;69710;64.656;21.218;2023-05-16T10:39:13;30;29;
49454;PMS5003;69710;64.656;21.218;2023-05-16T10:41:41;28;27;
49454;PMS5003;69710;64.656;21.218;2023-05-16T10:44:12;30;29;
49454;PMS5003;69710;64.656;21.218;2023-05-16T10:46:40;25;25;
49454;PMS5003;69710;64.656;21.218;2023-05-16T10:49:19;33;33;
49454;PMS5003;69710;64.656;21.218;2023-05-16T10:52:01;34;32;
49454;PMS5003;69710;64.656;21.218;2023-05-16T10:54:33;28;28;
49454;PMS5003;69710;64.656;21.218;2023-05-16T10:57:03;31;29;
49454;PMS5003;69710;64.656;21.218;2023-05-16T10:59:41;26;24;
49454;PMS5003;69710;64.656;21.218;2023-05-16T11:02:22;28;26;
49454;PMS5003;69710;64.656;21.218;2023-05-16T11:04:52;39;37;
49454;PMS5003;69710;64.656;21.218;2023-05-16T11:07:22;32;31;
49454;PMS5003;69710;64.656;21.218;2023-05-16T11:10:07;33;32;
49454;PMS5003;69710;64.656;21.218;2023-05-16T11:12:36;30;30;
49454;PMS5003;69710;64.656;21.218;2023-05-16T11:15:24;30;29;
49454;PMS5003;69710;64.656;21.218;2023-05-16T11:18:13;24;23;
49454;PMS5003;69710;64.656;21.218;2023-05-16T11:20:42;26;26;
49454;PMS5003;69710;64.656;21.218;2023-05-16T11:23:21;30;30;
49454;PMS5003;69710;64.656;21.218;2023-05-16T11:25:51;30;28;
49454;PMS5003;69710;64.656;21.218;2023-05-16T11:28:20;31;31;
49454;PMS5003;69710;64.656;21.218;2023-05-16T11:30:50;30;26;
49454;PMS5003;69710;64.656;21.218;2023-05-16T11:33:19;26;24;
49454;PMS5003;69710;64.656;21.218;2023-05-16T11:36:04;25;25;
49454;PMS5003;69710;64.656;21.218;2023-05-16T11:38:33;26;24;
49454;PMS5003;69710;64.656;21.218;2023-05-16T11:41:02;28;27;
49454;PMS5003;69710;64.656;21.218;2023-05-16T11:43:39;27;27;
49454;PMS5003;69710;64.656;21.218;2023-05-16T11:46:10;27;26;
49454;PMS5003;69710;64.656;21.218;2023-05-16T11:48:38;27;27;
49454;PMS5003;69710;64.656;21.218;2023-05-16T11:51:06;27;26;
49454;PMS5003;69710;64.656;21.218;2023-05-16T11:53:35;26;24;
49454;PMS5003;69710;64.656;21.218;2023-05-16T11:56:03;26;25;
49454;PMS5003;69710;64.656;21.218;2023-05-16T11:58:33;27;27;
49454;PMS5003;69710;64.656;21.218;2023-05-16T12:01:02;31;31;
49454;PMS5003;69710;64.656;21.218;2023-05-16T12:03:30;32;31;
49454;PMS5003;69710;64.656;21.218;2023-05-16T12:05:58;27;26;
49454;PMS5003;69710;64.656;21.218;2023-05-16T12:08:25;28;28;
49454;PMS5003;69710;64.656;21.218;2023-05-16T12:10:53;28;25;
49454;PMS5003;69710;64.656;21.218;2023-05-16T12:13:22;25;23;
49454;PMS5003;69710;64.656;21.218;2023-05-16T12:15:51;22;22;
49454;PMS5003;69710;64.656;21.218;2023-05-16T12:18:19;26;25;
49454;PMS5003;69710;64.656;21.218;2023-05-16T12:20:46;26;26;
49454;PMS5003;69710;64.656;21.218;2023-05-16T12:23:14;26;25;
49454;PMS5003;69710;64.656;21.218;2023-05-16T12:25:44;24;22;
49454;PMS5003;69710;64.656;21.218;2023-05-16T12:28:13;24;24;
49454;PMS5003;69710;64.656;21.218;2023-05-16T12:30:42;25;24;
49454;PMS5003;69710;64.656;21.218;2023-05-16T12:33:11;29;27;
49454;PMS5003;69710;64.656;21.218;2023-05-16T12:35:40;33;32;
49454;PMS5003;69710;64.656;21.218;2023-05-16T12:38:10;30;26;
49454;PMS5003;69710;64.656;21.218;2023-05-16T12:40:40;27;25;
49454;PMS5003;69710;64.656;21.218;2023-05-16T12:43:12;30;30;
49454;PMS5003;69710;64.656;21.218;2023-05-16T12:45:40;24;24;
49454;PMS5003;69710;64.656;21.218;2023-05-16T12:48:12;34;33;
49454;PMS5003;69710;64.656;21.218;2023-05-16T12:50:39;36;32;
49454;PMS5003;69710;64.656;21.218;2023-05-16T12:53:10;34;34;
49454;PMS5003;69710;64.656;21.218;2023-05-16T12:55:39;27;26;
49454;PMS5003;69710;64.656;21.218;2023-05-16T12:58:08;33;32;
49454;PMS5003;69710;64.656;21.218;2023-05-16T13:00:36;29;28;
49454;PMS5003;69710;64.656;21.218;2023-05-16T13:03:05;29;28;
49454;PMS5003;69710;64.656;21.218;2023-05-16T13:05:33;32;31;
49454;PMS5003;69710;64.656;21.218;2023-05-16T13:08:00;33;33;
49454;PMS5003;69710;64.656;21.218;2023-05-16T13:10:28;34;34;
49454;PMS5003;69710;64.656;21.218;2023-05-16T13:12:56;34;32;
49454;PMS5003;69710;64.656;21.218;2023-05-16T13:15:24;29;29;
49454;PMS5003;69710;64.656;21.218;2023-05-16T13:17:51;35;34;
49454;PMS5003;69710;64.656;21.218;2023-05-16T13:20:19;27;27;
49454;PMS5003;69710;64.656;21.218;2023-05-16T13:22:47;25;23;
49454;PMS5003;69710;64.656;21.218;2023-05-16T13:25:14;26;24;
49454;PMS5003;69710;64.656;21.218;2023-05-16T13:27:41;24;24;
49454;PMS5003;69710;64.656;21.218;2023-05-16T13:30:09;27;26;
49454;PMS5003;69710;64.656;21.218;2023-05-16T13:32:36;24;23;
49454;PMS5003;69710;64.656;21.218;2023-05-16T13:35:04;23;23;
49454;PMS5003;69710;64.656;21.218;2023-05-16T13:37:32;23;21;
49454;PMS5003;69710;64.656;21.218;2023-05-16T13:39:59;27;26;
49454;PMS5003;69710;64.656;21.218;2023-05-16T13:42:28;20;20;
49454;PMS5003;69710;64.656;21.218;2023-05-16T13:44:55;21;20;
49454;PMS5003;69710;64.656;21.218;2023-05-16T13:47:22;19;19;
49454;PMS5003;69710;64.656;21.218;2023-05-16T13:49:50;19;18;
49454;PMS5003;69710;64.656;21.218;2023-05-16T13:52:18;24;23;
49454;PMS5003;69710;64.656;21.218;2023-05-16T13:54:46;20;19;
49454;PMS5003;69710;64.656;21.218;2023-05-16T13:57:14;18;18;
49454;PMS5003;69710;64.656;21.218;2023-05-16T13:59:42;21;21;
49454;PMS5003;69710;64.656;21.218;2023-05-16T14:02:09;18;18;
49454;PMS5003;69710;64.656;21.218;2023-05-16T14:04:37;19;19;
49454;PMS5003;69710;64.656;21.218;2023-05-16T14:07:04;21;21;
49454;PMS5003;69710;64.656;21.218;2023-05-16T14:09:31;20;19;
49454;PMS5003;69710;64.656;21.218;2023-05-16T14:11:59;19;19;
49454;PMS5003;69710;64.656;21.218;2023-05-16T14:14:27;21;20;
49454;PMS5003;69710;64.656;21.218;2023-05-16T14:16:54;17;16;
49454;PMS5003;69710;64.656;21.218;2023-05-16T14:19:22;26;26;
49454;PMS5003;69710;64.656;21.218;2023-05-16T14:21:49;17;16;
49454;PMS5003;69710;64.656;21.218;2023-05-16T14:24:17;17;16;
49454;PMS5003;69710;64.656;21.218;2023-05-16T14:26:45;17;16;
49454;PMS5003;69710;64.656;21.218;2023-05-16T14:29:12;15;15;
49454;PMS5003;69710;64.656;21.218;2023-05-16T14:31:40;16;16;
49454;PMS5003;69710;64.656;21.218;2023-05-16T14:34:08;17;17;
49454;PMS5003;69710;64.656;21.218;2023-05-16T14:36:35;16;16;
49454;PMS5003;69710;64.656;21.218;2023-05-16T14:39:03;16;15;
49454;PMS5003;69710;64.656;21.218;2023-05-16T14:41:31;17;17;
49454;PMS5003;69710;64.656;21.218;2023-05-16T14:43:58;19;18;
49454;PMS5003;69710;64.656;21.218;2023-05-16T14:46:26;21;20;
49454;PMS5003;69710;64.656;21.218;2023-05-16T14:48:54;23;22;
49454;PMS5003;69710;64.656;21.218;2023-05-16T14:51:21;19;18;
49454;PMS5003;69710;64.656;21.218;2023-05-16T14:53:49;18;16;
49454;PMS5003;69710;64.656;21.218;2023-05-16T14:56:16;16;16;
49454;PMS5003;69710;64.656;21.218;2023-05-16T14:58:43;16;16;
49454;PMS5003;69710;64.656;21.218;2023-05-16T15:01:11;19;18;
49454;PMS5003;69710;64.656;21.218;2023-05-16T15:03:39;22;22;
49454;PMS5003;69710;64.656;21.218;2023-05-16T15:06:06;20;20;
49454;PMS5003;69710;64.656;21.218;2023-05-16T15:08:34;15;14;
49454;PMS5003;69710;64.656;21.218;2023-05-16T15:11:02;16;16;
49454;PMS5003;69710;64.656;21.218;2023-05-16T15:13:29;16;16;
49454;PMS5003;69710;64.656;21.218;2023-05-16T15:15:56;15;15;
49454;PMS5003;69710;64.656;21.218;2023-05-16T15:18:24;15;15;
49454;PMS5003;69710;64.656;21.218;2023-05-16T15:20:51;13;13;
49454;PMS5003;69710;64.656;21.218;2023-05-16T15:23:19;16;15;
49454;PMS5003;69710;64.656;21.218;2023-05-16T15:25:46;16;14;
49454;PMS5003;69710;64.656;21.218;2023-05-16T15:28:14;14;14;
49454;PMS5003;69710;64.656;21.218;2023-05-16T15:30:41;13;12;
49454;PMS5003;69710;64.656;21.218;2023-05-16T15:33:09;13;13;
49454;PMS5003;69710;64.656;21.218;2023-05-16T15:35:36;14;13;
49454;PMS5003;69710;64.656;21.218;2023-05-16T15:38:04;11;9;
49454;PMS5003;69710;64.656;21.218;2023-05-16T15:40:31;13;11;
49454;PMS5003;69710;64.656;21.218;2023-05-16T15:42:58;10;10;
49454;PMS5003;69710;64.656;21.218;2023-05-16T15:45:26;10;10;
49454;PMS5003;69710;64.656;21.218;2023-05-16T15:47:53;8;8;
49454;PMS5003;69710;64.656;21.218;2023-05-16T15:50:21;11;8;
49454;PMS5003;69710;64.656;21.218;2023-05-16T15:52:48;9;9;
49454;PMS5003;69710;64.656;21.218;2023-05-16T15:55:17;10;10;
49454;PMS5003;69710;64.656;21.218;2023-05-16T15:57:45;8;8;
49454;PMS5003;69710;64.656;21.218;2023-05-16T16:00:13;10;8;
49454;PMS5003;69710;64.656;21.218;2023-05-16T16:02:42;9;8;
49454;PMS5003;69710;64.656;21.218;2023-05-16T16:05:09;8;8;
49454;PMS5003;69710;64.656;21.218;2023-05-16T16:07:37;8;8;
49454;PMS5003;69710;64.656;21.218;2023-05-16T16:10:05;7;7;